sensor_id;sensor_type;location;lat;lon;timestamp;temperature;humidity
306;DHT22;137;48.578;9.180;2023-12-22T00:00:11;7.30;98.20
306;DHT22;137;48.578;9.180;2023-12-22T00:02:37;7.20;98.20
306;DHT22;137;48.578;9.180;2023-12-22T00:05:07;7.20;98.20
306;DHT22;137;48.578;9.180;2023-12-22T00:07:33;7.20;98.20
306;DHT22;137;48.578;9.180;2023-12-22T00:10:00;7.20;98.20
306;DHT22;137;48.578;9.180;2023-12-22T00:12:27;7.10;98.20
306;DHT22;137;48.578;9.180;2023-12-22T00:14:54;7.10;98.20
306;DHT22;137;48.578;9.180;2023-12-22T00:17:20;7.00;98.20
306;DHT22;137;48.578;9.180;2023-12-22T00:19:47;6.90;98.20
306;DHT22;137;48.578;9.180;2023-12-22T00:22:15;6.90;98.20
306;DHT22;137;48.578;9.180;2023-12-22T00:24:42;6.90;98.20
306;DHT22;137;48.578;9.180;2023-12-22T00:27:08;7.00;98.20
306;DHT22;137;48.578;9.180;2023-12-22T00:29:35;7.00;98.20
306;DHT22;137;48.578;9.180;2023-12-22T00:32:03;7.10;98.20
306;DHT22;137;48.578;9.180;2023-12-22T00:34:29;7.20;98.20
306;DHT22;137;48.578;9.180;2023-12-22T00:36:56;7.20;98.20
306;DHT22;137;48.578;9.180;2023-12-22T00:39:25;7.10;98.20
306;DHT22;137;48.578;9.180;2023-12-22T00:41:52;7.00;98.20
306;DHT22;137;48.578;9.180;2023-12-22T00:44:18;7.00;98.20
306;DHT22;137;48.578;9.180;2023-12-22T00:46:45;7.10;98.20
306;DHT22;137;48.578;9.180;2023-12-22T00:49:12;7.00;98.20
306;DHT22;137;48.578;9.180;2023-12-22T00:51:39;7.00;98.20
306;DHT22;137;48.578;9.180;2023-12-22T00:54:05;7.00;98.20
306;DHT22;137;48.578;9.180;2023-12-22T00:56:33;7.00;98.20
306;DHT22;137;48.578;9.180;2023-12-22T00:59:00;6.90;98.20
306;DHT22;137;48.578;9.180;2023-12-22T01:01:27;6.90;98.20
306;DHT22;137;48.578;9.180;2023-12-22T01:03:53;7.00;98.20
306;DHT22;137;48.578;9.180;2023-12-22T01:06:20;7.00;98.20
306;DHT22;137;48.578;9.180;2023-12-22T01:08:47;7.10;98.20
306;DHT22;137;48.578;9.180;2023-12-22T01:11:15;7.00;98.20
306;DHT22;137;48.578;9.180;2023-12-22T01:13:43;7.10;98.20
306;DHT22;137;48.578;9.180;2023-12-22T01:16:10;7.20;98.20
306;DHT22;137;48.578;9.180;2023-12-22T01:18:37;7.20;98.20
306;DHT22;137;48.578;9.180;2023-12-22T01:21:07;7.20;98.20
306;DHT22;137;48.578;9.180;2023-12-22T01:23:34;7.20;98.20
306;DHT22;137;48.578;9.180;2023-12-22T01:26:01;7.20;98.20
306;DHT22;137;48.578;9.180;2023-12-22T01:28:28;7.10;98.20
306;DHT22;137;48.578;9.180;2023-12-22T01:30:56;7.10;98.20
306;DHT22;137;48.578;9.180;2023-12-22T01:33:22;7.10;98.20
306;DHT22;137;48.578;9.180;2023-12-22T01:35:49;7.00;98.20
306;DHT22;137;48.578;9.180;2023-12-22T01:38:16;7.00;98.20
306;DHT22;137;48.578;9.180;2023-12-22T01:40:43;7.00;98.20
306;DHT22;137;48.578;9.180;2023-12-22T01:43:10;7.00;98.20
306;DHT22;137;48.578;9.180;2023-12-22T01:45:36;6.90;98.20
306;DHT22;137;48.578;9.180;2023-12-22T01:48:05;6.80;98.20
306;DHT22;137;48.578;9.180;2023-12-22T01:50:32;6.80;98.20
306;DHT22;137;48.578;9.180;2023-12-22T01:52:59;6.70;98.20
306;DHT22;137;48.578;9.180;2023-12-22T01:55:25;6.60;98.20
306;DHT22;137;48.578;9.180;2023-12-22T01:57:52;6.60;98.20
306;DHT22;137;48.578;9.180;2023-12-22T02:00:19;6.50;98.20
306;DHT22;137;48.578;9.180;2023-12-22T02:02:47;6.50;98.20
306;DHT22;137;48.578;9.180;2023-12-22T02:05:15;6.40;98.20
306;DHT22;137;48.578;9.180;2023-12-22T02:07:42;6.40;98.20
306;DHT22;137;48.578;9.180;2023-12-22T02:10:10;6.40;98.20
306;DHT22;137;48.578;9.180;2023-12-22T02:12:37;6.40;98.20
306;DHT22;137;48.578;9.180;2023-12-22T02:15:04;6.40;98.20
306;DHT22;137;48.578;9.180;2023-12-22T02:17:38;6.50;98.20
306;DHT22;137;48.578;9.180;2023-12-22T02:20:07;6.50;98.20
306;DHT22;137;48.578;9.180;2023-12-22T02:22:35;6.50;98.20
306;DHT22;137;48.578;9.180;2023-12-22T02:25:02;6.60;98.20
306;DHT22;137;48.578;9.180;2023-12-22T02:27:37;6.50;98.20
306;DHT22;137;48.578;9.180;2023-12-22T02:30:08;6.60;98.20
306;DHT22;137;48.578;9.180;2023-12-22T02:32:38;6.50;98.20
306;DHT22;137;48.578;9.180;2023-12-22T02:35:09;6.50;98.20
306;DHT22;137;48.578;9.180;2023-12-22T02:37:39;6.60;98.20
306;DHT22;137;48.578;9.180;2023-12-22T02:40:07;6.50;98.20
306;DHT22;137;48.578;9.180;2023-12-22T02:42:34;6.60;98.20
306;DHT22;137;48.578;9.180;2023-12-22T02:45:03;6.60;98.20
306;DHT22;137;48.578;9.180;2023-12-22T02:47:30;6.60;98.20
306;DHT22;137;48.578;9.180;2023-12-22T02:49:57;6.70;98.20
306;DHT22;137;48.578;9.180;2023-12-22T02:52:24;6.70;98.20
306;DHT22;137;48.578;9.180;2023-12-22T02:54:53;6.70;98.20
306;DHT22;137;48.578;9.180;2023-12-22T02:57:19;6.70;98.20
306;DHT22;137;48.578;9.180;2023-12-22T02:59:46;6.80;98.20
306;DHT22;137;48.578;9.180;2023-12-22T03:02:13;6.80;98.20
306;DHT22;137;48.578;9.180;2023-12-22T03:04:39;6.80;98.20
306;DHT22;137;48.578;9.180;2023-12-22T03:07:06;6.80;98.20
306;DHT22;137;48.578;9.180;2023-12-22T03:09:33;6.90;98.20
306;DHT22;137;48.578;9.180;2023-12-22T03:12:01;7.00;98.20
306;DHT22;137;48.578;9.180;2023-12-22T03:14:29;6.90;98.20
306;DHT22;137;48.578;9.180;2023-12-22T03:16:55;6.90;98.20
306;DHT22;137;48.578;9.180;2023-12-22T03:19:22;6.90;98.20
306;DHT22;137;48.578;9.180;2023-12-22T03:21:49;6.90;98.20
306;DHT22;137;48.578;9.180;2023-12-22T03:24:16;6.80;98.20
306;DHT22;137;48.578;9.180;2023-12-22T03:26:44;6.70;98.20
306;DHT22;137;48.578;9.180;2023-12-22T03:29:12;6.70;98.20
306;DHT22;137;48.578;9.180;2023-12-22T03:31:38;6.60;98.20
306;DHT22;137;48.578;9.180;2023-12-22T03:34:04;6.60;98.20
306;DHT22;137;48.578;9.180;2023-12-22T03:36:31;6.60;98.20
306;DHT22;137;48.578;9.180;2023-12-22T03:41:26;6.50;98.20
306;DHT22;137;48.578;9.180;2023-12-22T03:43:54;6.60;98.20
306;DHT22;137;48.578;9.180;2023-12-22T03:46:22;6.50;98.20
306;DHT22;137;48.578;9.180;2023-12-22T03:48:49;6.60;98.20
306;DHT22;137;48.578;9.180;2023-12-22T03:51:16;6.60;98.20
306;DHT22;137;48.578;9.180;2023-12-22T03:53:43;6.60;98.20
306;DHT22;137;48.578;9.180;2023-12-22T03:56:10;6.70;98.20
306;DHT22;137;48.578;9.180;2023-12-22T03:58:37;6.80;98.20
306;DHT22;137;48.578;9.180;2023-12-22T04:01:04;6.80;98.20
306;DHT22;137;48.578;9.180;2023-12-22T04:03:34;6.90;98.20
306;DHT22;137;48.578;9.180;2023-12-22T04:06:02;6.90;98.20
306;DHT22;137;48.578;9.180;2023-12-22T04:08:28;6.90;98.20
306;DHT22;137;48.578;9.180;2023-12-22T04:10:55;6.90;98.20
306;DHT22;137;48.578;9.180;2023-12-22T04:13:22;6.90;98.20
306;DHT22;137;48.578;9.180;2023-12-22T04:15:48;6.90;98.20
306;DHT22;137;48.578;9.180;2023-12-22T04:18:15;6.90;98.20
306;DHT22;137;48.578;9.180;2023-12-22T04:20:43;6.90;98.20
306;DHT22;137;48.578;9.180;2023-12-22T04:23:10;7.00;98.20
306;DHT22;137;48.578;9.180;2023-12-22T04:25:37;7.00;98.20
306;DHT22;137;48.578;9.180;2023-12-22T04:28:04;7.00;98.20
306;DHT22;137;48.578;9.180;2023-12-22T04:30:30;7.10;98.20
306;DHT22;137;48.578;9.180;2023-12-22T04:32:57;7.00;98.20
306;DHT22;137;48.578;9.180;2023-12-22T04:35:24;7.00;98.20
306;DHT22;137;48.578;9.180;2023-12-22T04:37:52;7.00;98.20
306;DHT22;137;48.578;9.180;2023-12-22T04:40:18;7.00;98.20
306;DHT22;137;48.578;9.180;2023-12-22T04:42:45;7.00;98.20
306;DHT22;137;48.578;9.180;2023-12-22T04:45:12;6.90;98.20
306;DHT22;137;48.578;9.180;2023-12-22T04:47:39;6.80;98.20
306;DHT22;137;48.578;9.180;2023-12-22T04:50:05;6.70;98.20
306;DHT22;137;48.578;9.180;2023-12-22T04:52:32;6.60;98.20
306;DHT22;137;48.578;9.180;2023-12-22T04:55:00;6.50;98.20
306;DHT22;137;48.578;9.180;2023-12-22T04:57:27;6.50;98.20
306;DHT22;137;48.578;9.180;2023-12-22T04:59:54;6.40;98.20
306;DHT22;137;48.578;9.180;2023-12-22T05:02:21;6.50;98.20
306;DHT22;137;48.578;9.180;2023-12-22T05:04:47;6.60;98.20
306;DHT22;137;48.578;9.180;2023-12-22T05:07:14;6.60;98.20
306;DHT22;137;48.578;9.180;2023-12-22T05:09:41;6.50;98.20
306;DHT22;137;48.578;9.180;2023-12-22T05:12:10;6.40;98.20
306;DHT22;137;48.578;9.180;2023-12-22T05:14:36;6.30;98.20
306;DHT22;137;48.578;9.180;2023-12-22T05:17:03;6.30;98.20
306;DHT22;137;48.578;9.180;2023-12-22T05:19:31;6.30;98.20
306;DHT22;137;48.578;9.180;2023-12-22T05:22:01;6.30;98.20
306;DHT22;137;48.578;9.180;2023-12-22T05:24:27;6.30;98.20
306;DHT22;137;48.578;9.180;2023-12-22T05:26:55;6.40;98.20
306;DHT22;137;48.578;9.180;2023-12-22T05:29:23;6.40;98.20
306;DHT22;137;48.578;9.180;2023-12-22T05:31:50;6.40;98.20
306;DHT22;137;48.578;9.180;2023-12-22T05:34:19;6.50;98.20
306;DHT22;137;48.578;9.180;2023-12-22T05:36:48;6.50;98.20
306;DHT22;137;48.578;9.180;2023-12-22T05:39:15;6.60;98.20
306;DHT22;137;48.578;9.180;2023-12-22T05:41:41;6.60;98.20
306;DHT22;137;48.578;9.180;2023-12-22T05:44:08;6.70;98.20
306;DHT22;137;48.578;9.180;2023-12-22T05:46:39;6.70;98.20
306;DHT22;137;48.578;9.180;2023-12-22T05:49:06;6.70;98.20
306;DHT22;137;48.578;9.180;2023-12-22T05:51:37;6.70;98.20
306;DHT22;137;48.578;9.180;2023-12-22T05:54:04;6.80;98.20
306;DHT22;137;48.578;9.180;2023-12-22T05:56:31;6.70;98.20
306;DHT22;137;48.578;9.180;2023-12-22T05:58:59;6.70;98.20
306;DHT22;137;48.578;9.180;2023-12-22T06:01:26;6.80;98.20
306;DHT22;137;48.578;9.180;2023-12-22T06:03:54;6.80;98.20
306;DHT22;137;48.578;9.180;2023-12-22T06:06:21;6.80;98.20
306;DHT22;137;48.578;9.180;2023-12-22T06:08:48;6.80;98.20
306;DHT22;137;48.578;9.180;2023-12-22T06:11:15;6.80;98.20
306;DHT22;137;48.578;9.180;2023-12-22T06:13:42;6.70;98.20
306;DHT22;137;48.578;9.180;2023-12-22T06:16:11;6.60;98.20
306;DHT22;137;48.578;9.180;2023-12-22T06:18:39;6.60;98.20
306;DHT22;137;48.578;9.180;2023-12-22T06:21:09;6.60;98.20
306;DHT22;137;48.578;9.180;2023-12-22T06:23:36;6.50;98.20
306;DHT22;137;48.578;9.180;2023-12-22T06:26:08;6.50;98.20
306;DHT22;137;48.578;9.180;2023-12-22T06:28:34;6.50;98.20
306;DHT22;137;48.578;9.180;2023-12-22T06:31:03;6.60;98.20
306;DHT22;137;48.578;9.180;2023-12-22T06:33:30;6.60;98.20
306;DHT22;137;48.578;9.180;2023-12-22T06:35:56;6.60;98.20
306;DHT22;137;48.578;9.180;2023-12-22T06:38:24;6.60;98.20
306;DHT22;137;48.578;9.180;2023-12-22T06:40:51;6.60;98.20
306;DHT22;137;48.578;9.180;2023-12-22T06:43:17;6.60;98.20
306;DHT22;137;48.578;9.180;2023-12-22T06:45:47;6.60;98.20
306;DHT22;137;48.578;9.180;2023-12-22T06:48:13;6.50;98.20
306;DHT22;137;48.578;9.180;2023-12-22T06:50:40;6.40;98.20
306;DHT22;137;48.578;9.180;2023-12-22T06:53:10;6.30;98.20
306;DHT22;137;48.578;9.180;2023-12-22T06:55:38;6.30;98.20
306;DHT22;137;48.578;9.180;2023-12-22T06:58:04;6.20;98.20
306;DHT22;137;48.578;9.180;2023-12-22T07:00:31;6.20;98.20
306;DHT22;137;48.578;9.180;2023-12-22T07:02:58;6.10;98.20
306;DHT22;137;48.578;9.180;2023-12-22T07:05:33;6.10;98.20
306;DHT22;137;48.578;9.180;2023-12-22T07:08:04;6.20;98.20
306;DHT22;137;48.578;9.180;2023-12-22T07:10:32;6.20;98.20
306;DHT22;137;48.578;9.180;2023-12-22T07:13:06;6.20;98.20
306;DHT22;137;48.578;9.180;2023-12-22T07:15:33;6.30;98.20
306;DHT22;137;48.578;9.180;2023-12-22T07:18:00;6.30;98.20
306;DHT22;137;48.578;9.180;2023-12-22T07:20:27;6.30;98.20
306;DHT22;137;48.578;9.180;2023-12-22T07:22:53;6.30;98.20
306;DHT22;137;48.578;9.180;2023-12-22T07:25:21;6.30;98.20
306;DHT22;137;48.578;9.180;2023-12-22T07:27:48;6.40;98.20
306;DHT22;137;48.578;9.180;2023-12-22T07:30:16;6.50;98.20
306;DHT22;137;48.578;9.180;2023-12-22T07:32:44;6.40;98.20
306;DHT22;137;48.578;9.180;2023-12-22T07:35:13;6.50;98.20
306;DHT22;137;48.578;9.180;2023-12-22T07:37:39;6.50;98.20
306;DHT22;137;48.578;9.180;2023-12-22T07:40:07;6.50;98.20
306;DHT22;137;48.578;9.180;2023-12-22T07:42:35;6.60;98.20
306;DHT22;137;48.578;9.180;2023-12-22T07:45:02;6.60;98.20
306;DHT22;137;48.578;9.180;2023-12-22T07:47:31;6.60;98.20
306;DHT22;137;48.578;9.180;2023-12-22T07:49:58;6.50;98.20
306;DHT22;137;48.578;9.180;2023-12-22T07:52:27;6.50;98.20
306;DHT22;137;48.578;9.180;2023-12-22T07:54:54;6.50;98.20
306;DHT22;137;48.578;9.180;2023-12-22T07:57:20;6.50;98.20
306;DHT22;137;48.578;9.180;2023-12-22T07:59:47;6.50;98.20
306;DHT22;137;48.578;9.180;2023-12-22T08:02:14;6.60;98.20
306;DHT22;137;48.578;9.180;2023-12-22T08:04:42;6.60;98.20
306;DHT22;137;48.578;9.180;2023-12-22T08:07:08;6.60;98.20
306;DHT22;137;48.578;9.180;2023-12-22T08:09:35;6.60;98.20
306;DHT22;137;48.578;9.180;2023-12-22T08:12:02;6.60;98.20
306;DHT22;137;48.578;9.180;2023-12-22T08:14:29;6.60;98.20
306;DHT22;137;48.578;9.180;2023-12-22T08:16:56;6.70;98.20
306;DHT22;137;48.578;9.180;2023-12-22T08:19:22;6.70;98.20
306;DHT22;137;48.578;9.180;2023-12-22T08:21:52;6.80;98.20
306;DHT22;137;48.578;9.180;2023-12-22T08:24:19;6.80;98.20
306;DHT22;137;48.578;9.180;2023-12-22T08:26:45;6.80;98.20
306;DHT22;137;48.578;9.180;2023-12-22T08:29:12;6.80;98.20
306;DHT22;137;48.578;9.180;2023-12-22T08:31:39;6.80;98.20
306;DHT22;137;48.578;9.180;2023-12-22T08:34:06;6.80;98.20
306;DHT22;137;48.578;9.180;2023-12-22T08:36:32;6.90;98.20
306;DHT22;137;48.578;9.180;2023-12-22T08:41:40;7.00;98.20
306;DHT22;137;48.578;9.180;2023-12-22T08:44:07;7.00;98.20
306;DHT22;137;48.578;9.180;2023-12-22T08:46:34;7.00;98.20
306;DHT22;137;48.578;9.180;2023-12-22T08:49:01;7.00;98.20
306;DHT22;137;48.578;9.180;2023-12-22T08:51:28;7.10;98.20
306;DHT22;137;48.578;9.180;2023-12-22T08:53:55;7.10;98.20
306;DHT22;137;48.578;9.180;2023-12-22T08:56:22;7.10;98.20
306;DHT22;137;48.578;9.180;2023-12-22T08:58:51;7.10;98.20
306;DHT22;137;48.578;9.180;2023-12-22T09:01:20;7.10;98.20
306;DHT22;137;48.578;9.180;2023-12-22T09:03:46;7.20;98.20
306;DHT22;137;48.578;9.180;2023-12-22T09:06:14;7.20;98.20
306;DHT22;137;48.578;9.180;2023-12-22T09:08:41;7.20;98.20
306;DHT22;137;48.578;9.180;2023-12-22T09:11:08;7.20;98.20
306;DHT22;137;48.578;9.180;2023-12-22T09:13:34;7.30;98.20
306;DHT22;137;48.578;9.180;2023-12-22T09:16:04;7.30;98.20
306;DHT22;137;48.578;9.180;2023-12-22T09:18:30;7.30;98.20
306;DHT22;137;48.578;9.180;2023-12-22T09:20:58;7.30;98.20
306;DHT22;137;48.578;9.180;2023-12-22T09:23:24;7.30;98.20
306;DHT22;137;48.578;9.180;2023-12-22T09:25:51;7.20;98.20
306;DHT22;137;48.578;9.180;2023-12-22T09:28:18;7.20;98.20
306;DHT22;137;48.578;9.180;2023-12-22T09:30:45;7.20;98.20
306;DHT22;137;48.578;9.180;2023-12-22T09:33:13;7.10;98.20
306;DHT22;137;48.578;9.180;2023-12-22T09:35:40;7.00;98.20
306;DHT22;137;48.578;9.180;2023-12-22T09:38:08;7.10;98.20
306;DHT22;137;48.578;9.180;2023-12-22T09:40:35;7.10;98.20
306;DHT22;137;48.578;9.180;2023-12-22T09:43:03;7.10;98.20
306;DHT22;137;48.578;9.180;2023-12-22T09:45:30;7.10;98.20
306;DHT22;137;48.578;9.180;2023-12-22T09:47:59;7.10;98.20
306;DHT22;137;48.578;9.180;2023-12-22T09:50:28;7.10;98.20
306;DHT22;137;48.578;9.180;2023-12-22T09:52:55;7.10;98.20
306;DHT22;137;48.578;9.180;2023-12-22T09:55:22;7.20;98.20
306;DHT22;137;48.578;9.180;2023-12-22T09:57:49;7.20;98.20
306;DHT22;137;48.578;9.180;2023-12-22T10:00:17;7.20;98.20
306;DHT22;137;48.578;9.180;2023-12-22T10:02:45;7.20;98.20
306;DHT22;137;48.578;9.180;2023-12-22T10:05:12;7.20;98.20
306;DHT22;137;48.578;9.180;2023-12-22T10:07:41;7.20;98.20
306;DHT22;137;48.578;9.180;2023-12-22T10:10:11;7.20;98.20
306;DHT22;137;48.578;9.180;2023-12-22T10:12:38;7.20;98.20
306;DHT22;137;48.578;9.180;2023-12-22T10:15:08;7.20;98.20
306;DHT22;137;48.578;9.180;2023-12-22T10:17:35;7.20;98.20
306;DHT22;137;48.578;9.180;2023-12-22T10:20:03;7.20;98.20
306;DHT22;137;48.578;9.180;2023-12-22T10:22:29;7.20;98.20
306;DHT22;137;48.578;9.180;2023-12-22T10:24:57;7.20;98.20
306;DHT22;137;48.578;9.180;2023-12-22T10:27:25;7.20;98.20
306;DHT22;137;48.578;9.180;2023-12-22T10:29:54;7.30;98.20
306;DHT22;137;48.578;9.180;2023-12-22T10:32:21;7.30;98.20
306;DHT22;137;48.578;9.180;2023-12-22T10:34:50;7.30;98.20
306;DHT22;137;48.578;9.180;2023-12-22T10:37:17;7.30;98.20
306;DHT22;137;48.578;9.180;2023-12-22T10:39:44;7.30;98.20
306;DHT22;137;48.578;9.180;2023-12-22T10:42:15;7.30;98.20
306;DHT22;137;48.578;9.180;2023-12-22T10:44:43;7.30;98.20
306;DHT22;137;48.578;9.180;2023-12-22T10:47:10;7.40;98.20
306;DHT22;137;48.578;9.180;2023-12-22T10:49:37;7.40;98.20
306;DHT22;137;48.578;9.180;2023-12-22T10:52:04;7.40;98.20
306;DHT22;137;48.578;9.180;2023-12-22T10:54:31;7.40;98.20
306;DHT22;137;48.578;9.180;2023-12-22T10:56:58;7.40;98.20
306;DHT22;137;48.578;9.180;2023-12-22T10:59:28;7.40;98.20
306;DHT22;137;48.578;9.180;2023-12-22T11:01:57;7.30;98.20
306;DHT22;137;48.578;9.180;2023-12-22T11:04:29;7.30;98.20
306;DHT22;137;48.578;9.180;2023-12-22T11:06:57;7.30;98.20
306;DHT22;137;48.578;9.180;2023-12-22T11:09:26;7.30;98.20
306;DHT22;137;48.578;9.180;2023-12-22T11:11:58;7.30;98.20
306;DHT22;137;48.578;9.180;2023-12-22T11:14:29;7.30;98.20
306;DHT22;137;48.578;9.180;2023-12-22T11:16:59;7.30;98.20
306;DHT22;137;48.578;9.180;2023-12-22T11:19:27;7.30;98.20
306;DHT22;137;48.578;9.180;2023-12-22T11:21:56;7.30;98.20
306;DHT22;137;48.578;9.180;2023-12-22T11:24:25;7.20;98.20
306;DHT22;137;48.578;9.180;2023-12-22T11:26:54;7.20;98.20
306;DHT22;137;48.578;9.180;2023-12-22T11:29:24;7.20;98.20
306;DHT22;137;48.578;9.180;2023-12-22T11:31:54;7.20;98.20
306;DHT22;137;48.578;9.180;2023-12-22T11:34:22;7.20;98.20
306;DHT22;137;48.578;9.180;2023-12-22T11:36:50;7.10;98.20
306;DHT22;137;48.578;9.180;2023-12-22T11:39:18;7.10;98.20
306;DHT22;137;48.578;9.180;2023-12-22T11:41:47;7.10;98.20
306;DHT22;137;48.578;9.180;2023-12-22T11:44:17;7.10;98.20
306;DHT22;137;48.578;9.180;2023-12-22T11:46:44;7.10;98.20
306;DHT22;137;48.578;9.180;2023-12-22T11:49:14;7.10;98.20
306;DHT22;137;48.578;9.180;2023-12-22T11:51:41;7.10;98.20
306;DHT22;137;48.578;9.180;2023-12-22T11:57:29;7.00;98.20
306;DHT22;137;48.578;9.180;2023-12-22T11:59:57;7.00;98.20
306;DHT22;137;48.578;9.180;2023-12-22T12:02:24;7.00;98.20
306;DHT22;137;48.578;9.180;2023-12-22T12:04:54;7.10;98.20
306;DHT22;137;48.578;9.180;2023-12-22T12:07:38;7.10;98.20
306;DHT22;137;48.578;9.180;2023-12-22T12:10:06;7.10;98.20
306;DHT22;137;48.578;9.180;2023-12-22T12:12:33;7.00;98.20
306;DHT22;137;48.578;9.180;2023-12-22T12:15:06;7.00;98.20
306;DHT22;137;48.578;9.180;2023-12-22T12:17:37;7.00;98.20
306;DHT22;137;48.578;9.180;2023-12-22T12:20:08;7.00;98.20
306;DHT22;137;48.578;9.180;2023-12-22T12:22:35;7.10;98.20
306;DHT22;137;48.578;9.180;2023-12-22T12:25:06;7.10;98.20
306;DHT22;137;48.578;9.180;2023-12-22T12:27:34;7.00;98.20
306;DHT22;137;48.578;9.180;2023-12-22T12:30:07;7.00;98.20
306;DHT22;137;48.578;9.180;2023-12-22T12:32:35;7.00;98.20
306;DHT22;137;48.578;9.180;2023-12-22T12:35:03;7.10;98.20
306;DHT22;137;48.578;9.180;2023-12-22T12:37:32;7.10;98.20
306;DHT22;137;48.578;9.180;2023-12-22T12:39:59;7.10;98.20
306;DHT22;137;48.578;9.180;2023-12-22T12:42:30;7.10;98.20
306;DHT22;137;48.578;9.180;2023-12-22T12:44:57;7.10;98.20
306;DHT22;137;48.578;9.180;2023-12-22T12:47:23;7.10;98.20
306;DHT22;137;48.578;9.180;2023-12-22T12:49:56;7.20;98.20
306;DHT22;137;48.578;9.180;2023-12-22T12:52:27;7.20;98.20
306;DHT22;137;48.578;9.180;2023-12-22T12:54:55;7.20;98.20
306;DHT22;137;48.578;9.180;2023-12-22T12:57:24;7.20;98.20
306;DHT22;137;48.578;9.180;2023-12-22T12:59:51;7.20;98.20
306;DHT22;137;48.578;9.180;2023-12-22T13:02:18;7.20;98.20
306;DHT22;137;48.578;9.180;2023-12-22T13:04:46;7.30;98.20
306;DHT22;137;48.578;9.180;2023-12-22T13:07:13;7.30;98.20
306;DHT22;137;48.578;9.180;2023-12-22T13:09:39;7.40;98.20
306;DHT22;137;48.578;9.180;2023-12-22T13:12:10;7.40;98.20
306;DHT22;137;48.578;9.180;2023-12-22T13:14:39;7.40;98.20
306;DHT22;137;48.578;9.180;2023-12-22T13:17:07;7.40;98.20
306;DHT22;137;48.578;9.180;2023-12-22T13:19:35;7.40;98.20
306;DHT22;137;48.578;9.180;2023-12-22T13:22:02;7.40;98.20
306;DHT22;137;48.578;9.180;2023-12-22T13:24:29;7.40;98.20
306;DHT22;137;48.578;9.180;2023-12-22T13:26:59;7.50;98.20
306;DHT22;137;48.578;9.180;2023-12-22T13:29:29;7.50;98.20
306;DHT22;137;48.578;9.180;2023-12-22T13:31:56;7.50;98.20
306;DHT22;137;48.578;9.180;2023-12-22T13:34:23;7.60;98.20
306;DHT22;137;48.578;9.180;2023-12-22T13:36:51;7.60;98.20
306;DHT22;137;48.578;9.180;2023-12-22T13:39:18;7.60;98.20
306;DHT22;137;48.578;9.180;2023-12-22T13:41:45;7.70;98.20
306;DHT22;137;48.578;9.180;2023-12-22T13:44:12;7.70;98.20
306;DHT22;137;48.578;9.180;2023-12-22T13:46:41;7.70;98.20
306;DHT22;137;48.578;9.180;2023-12-22T13:49:08;7.70;98.20
306;DHT22;137;48.578;9.180;2023-12-22T13:51:40;7.70;98.20
306;DHT22;137;48.578;9.180;2023-12-22T13:54:07;7.70;98.20
306;DHT22;137;48.578;9.180;2023-12-22T13:56:34;7.70;98.20
306;DHT22;137;48.578;9.180;2023-12-22T13:59:02;7.80;98.20
306;DHT22;137;48.578;9.180;2023-12-22T14:01:29;7.80;98.20
306;DHT22;137;48.578;9.180;2023-12-22T14:03:57;7.80;98.20
306;DHT22;137;48.578;9.180;2023-12-22T14:06:25;7.80;98.20
306;DHT22;137;48.578;9.180;2023-12-22T14:08:52;7.80;98.20
306;DHT22;137;48.578;9.180;2023-12-22T14:11:19;7.80;98.20
306;DHT22;137;48.578;9.180;2023-12-22T14:13:45;7.80;98.20
306;DHT22;137;48.578;9.180;2023-12-22T14:16:12;7.80;98.20
306;DHT22;137;48.578;9.180;2023-12-22T14:18:40;7.90;98.20
306;DHT22;137;48.578;9.180;2023-12-22T14:21:08;7.90;98.20
306;DHT22;137;48.578;9.180;2023-12-22T14:23:35;7.90;98.20
306;DHT22;137;48.578;9.180;2023-12-22T14:26:02;7.90;98.20
306;DHT22;137;48.578;9.180;2023-12-22T14:28:29;7.90;98.20
306;DHT22;137;48.578;9.180;2023-12-22T14:30:55;7.90;98.20
306;DHT22;137;48.578;9.180;2023-12-22T14:33:22;7.90;98.20
306;DHT22;137;48.578;9.180;2023-12-22T14:35:49;7.90;98.20
306;DHT22;137;48.578;9.180;2023-12-22T14:38:17;7.90;98.20
306;DHT22;137;48.578;9.180;2023-12-22T14:40:44;8.00;98.20
306;DHT22;137;48.578;9.180;2023-12-22T14:43:10;8.00;98.20
306;DHT22;137;48.578;9.180;2023-12-22T14:45:37;8.00;98.20
306;DHT22;137;48.578;9.180;2023-12-22T14:48:05;8.00;98.20
306;DHT22;137;48.578;9.180;2023-12-22T14:50:32;8.10;98.20
306;DHT22;137;48.578;9.180;2023-12-22T14:52:59;8.10;98.20
306;DHT22;137;48.578;9.180;2023-12-22T14:55:27;8.00;98.20
306;DHT22;137;48.578;9.180;2023-12-22T14:57:54;8.10;98.20
306;DHT22;137;48.578;9.180;2023-12-22T15:00:20;8.00;98.20
306;DHT22;137;48.578;9.180;2023-12-22T15:02:47;8.10;98.20
306;DHT22;137;48.578;9.180;2023-12-22T15:05:14;8.10;98.20
306;DHT22;137;48.578;9.180;2023-12-22T15:07:41;8.10;98.20
306;DHT22;137;48.578;9.180;2023-12-22T15:10:08;8.10;98.20
306;DHT22;137;48.578;9.180;2023-12-22T15:12:36;8.10;98.20
306;DHT22;137;48.578;9.180;2023-12-22T15:15:06;8.10;98.20
306;DHT22;137;48.578;9.180;2023-12-22T15:17:33;8.10;98.20
306;DHT22;137;48.578;9.180;2023-12-22T15:20:00;8.10;98.20
306;DHT22;137;48.578;9.180;2023-12-22T15:22:29;8.10;98.20
306;DHT22;137;48.578;9.180;2023-12-22T15:24:55;8.10;98.20
306;DHT22;137;48.578;9.180;2023-12-22T15:27:22;8.10;98.20
306;DHT22;137;48.578;9.180;2023-12-22T15:29:50;8.10;98.20
306;DHT22;137;48.578;9.180;2023-12-22T15:32:17;8.10;98.20
306;DHT22;137;48.578;9.180;2023-12-22T15:34:45;8.10;98.20
306;DHT22;137;48.578;9.180;2023-12-22T15:37:12;8.10;98.20
306;DHT22;137;48.578;9.180;2023-12-22T15:39:39;8.10;98.20
306;DHT22;137;48.578;9.180;2023-12-22T15:42:06;8.20;98.20
306;DHT22;137;48.578;9.180;2023-12-22T15:44:33;8.20;98.20
306;DHT22;137;48.578;9.180;2023-12-22T15:47:06;8.20;98.20
306;DHT22;137;48.578;9.180;2023-12-22T15:49:32;8.20;98.20
306;DHT22;137;48.578;9.180;2023-12-22T15:51:59;8.20;98.20
306;DHT22;137;48.578;9.180;2023-12-22T15:54:26;8.20;98.20
306;DHT22;137;48.578;9.180;2023-12-22T15:56:53;8.20;98.20
306;DHT22;137;48.578;9.180;2023-12-22T15:59:19;8.20;98.20
306;DHT22;137;48.578;9.180;2023-12-22T16:01:51;8.20;98.20
306;DHT22;137;48.578;9.180;2023-12-22T16:04:19;8.20;98.20
306;DHT22;137;48.578;9.180;2023-12-22T16:06:45;8.10;98.20
306;DHT22;137;48.578;9.180;2023-12-22T16:09:12;8.10;98.20
306;DHT22;137;48.578;9.180;2023-12-22T16:11:39;8.10;98.20
306;DHT22;137;48.578;9.180;2023-12-22T16:14:06;8.10;98.20
306;DHT22;137;48.578;9.180;2023-12-22T16:16:33;8.10;98.20
306;DHT22;137;48.578;9.180;2023-12-22T16:18:59;8.10;98.20
306;DHT22;137;48.578;9.180;2023-12-22T16:21:27;8.10;98.20
306;DHT22;137;48.578;9.180;2023-12-22T16:23:54;8.10;98.20
306;DHT22;137;48.578;9.180;2023-12-22T16:26:21;8.10;98.20
306;DHT22;137;48.578;9.180;2023-12-22T16:28:48;8.10;98.20
306;DHT22;137;48.578;9.180;2023-12-22T16:31:13;8.10;98.20
306;DHT22;137;48.578;9.180;2023-12-22T16:33:40;8.10;98.20
306;DHT22;137;48.578;9.180;2023-12-22T16:36:08;8.10;98.20
306;DHT22;137;48.578;9.180;2023-12-22T16:38:37;8.00;98.20
306;DHT22;137;48.578;9.180;2023-12-22T16:41:04;8.00;98.20
306;DHT22;137;48.578;9.180;2023-12-22T16:43:32;8.00;98.20
306;DHT22;137;48.578;9.180;2023-12-22T16:45:59;8.00;98.20
306;DHT22;137;48.578;9.180;2023-12-22T16:48:26;8.00;98.20
306;DHT22;137;48.578;9.180;2023-12-22T16:50:53;8.00;98.20
306;DHT22;137;48.578;9.180;2023-12-22T16:53:20;8.00;98.20
306;DHT22;137;48.578;9.180;2023-12-22T16:55:48;8.00;98.20
306;DHT22;137;48.578;9.180;2023-12-22T16:58:15;8.10;98.20
306;DHT22;137;48.578;9.180;2023-12-22T17:00:42;8.10;98.20